Terminal Aerodrome Forecast
Issued by NWS Cleveland, OH

Home | Current Version | Previous Version | Text Only | Print | Product List | Glossary Off
Versions: 1 2 3 4 5 6 7 8 9 10 11 12 13 14 15 16 17 18

520
FTUS41 KCLE 262322
TAFTOL
TAF
KTOL 262322Z 2700/2724 25009KT P6SM SKC
     FM271500 25015G25KT P6SM FEW040 SCT080=

USA.gov is the U.S. government's official web portal to all federal, state and local government web resources and services.